Time;durP1;ratioP1;P1;durP2;ratioP2;P2;SDS_P1;SDS_P2;PMS_P1;PMS_P2;Temp;Humidity;BMP_temperature;BMP_pressure;BME280_temperature;BME280_humidity;BME280_pressure;Samples;Min_cycle;Max_cycle;Signal;HPM_P1;HPM_P2
2021/09/30 00:01:27;;;;;;;2.60;2.45;;;22.60;99.90;;;;;;5074663;28;20052;-69
2021/09/30 00:03:54;;;;;;;2.70;2.60;;;22.50;99.90;;;;;;5076255;28;20028;-67
2021/09/30 00:06:22;;;;;;;2.50;2.40;;;22.60;99.90;;;;;;5076166;28;20369;-68
2021/09/30 00:08:49;;;;;;;2.50;2.15;;;22.90;99.90;;;;;;5075909;28;20099;-67
2021/09/30 00:11:21;;;;;;;1.90;1.90;;;23.00;99.90;;;;;;5075929;28;20528;-67
2021/09/30 00:13:54;;;;;;;1.88;1.77;;;23.20;99.90;;;;;;5075768;28;20021;-67
2021/09/30 00:16:52;;;;;;;2.00;1.90;;;23.40;99.90;;;;;;5075492;28;20051;-67
2021/09/30 00:41:22;;;;;;;2.03;1.92;;;24.00;99.80;;;;;;5074872;28;20073;-67
2021/09/30 00:49:19;;;;;;;2.13;2.00;;;23.80;99.50;;;;;;5074534;28;20462;-69
2021/09/30 00:54:36;;;;;;;1.90;1.80;;;23.40;99.50;;;;;;5074521;28;20033;-68
2021/09/30 02:19:05;;;;;;;5.47;4.55;;;21.00;99.90;;;;;;5073119;28;20023;-68
2021/09/30 03:00:00;;;;;;;5.55;5.00;;;20.30;99.90;;;;;;5072741;28;20028;-68
2021/09/30 03:02:28;;;;;;;5.63;5.25;;;20.20;99.90;;;;;;5072559;28;20028;-68
2021/09/30 03:04:56;;;;;;;4.93;4.45;;;20.30;99.90;;;;;;5072287;28;20503;-70
2021/09/30 03:07:25;;;;;;;5.00;4.70;;;20.60;99.90;;;;;;5072349;28;20120;-69
2021/09/30 03:09:54;;;;;;;4.30;4.00;;;21.00;99.90;;;;;;5072443;28;20024;-69
2021/09/30 03:12:30;;;;;;;4.60;4.20;;;20.80;99.90;;;;;;5072726;28;20017;-69
2021/09/30 03:17:45;;;;;;;7.03;4.60;;;20.30;99.90;;;;;;5072203;28;20097;-69
2021/09/30 03:20:46;;;;;;;7.10;4.80;;;20.20;99.90;;;;;;5072090;28;20500;-69
2021/09/30 03:23:10;;;;;;;7.25;4.88;;;19.90;99.90;;;;;;5071995;28;20032;-70
2021/09/30 03:25:41;;;;;;;7.22;6.63;;;19.70;99.90;;;;;;5072439;28;20024;-71
2021/09/30 03:28:10;;;;;;;8.45;7.10;;;19.60;99.90;;;;;;5072256;28;20495;-70
2021/09/30 03:30:37;;;;;;;8.10;7.30;;;19.40;99.90;;;;;;5070959;28;20021;-70
2021/09/30 03:33:08;;;;;;;14.95;8.65;;;19.70;99.90;;;;;;5072321;28;20021;-70
2021/09/30 03:35:37;;;;;;;9.23;8.32;;;19.90;99.90;;;;;;5072226;28;20067;-70
2021/09/30 03:38:06;;;;;;;11.25;8.77;;;20.20;99.90;;;;;;5072188;28;20017;-70
2021/09/30 03:40:35;;;;;;;10.55;8.80;;;20.30;99.90;;;;;;5070925;28;20028;-70
2021/09/30 03:43:04;;;;;;;9.38;8.55;;;20.60;99.90;;;;;;5072175;28;20017;-70
2021/09/30 03:45:32;;;;;;;9.55;8.70;;;20.60;99.90;;;;;;5072110;28;20107;-71
2021/09/30 03:47:59;;;;;;;9.02;8.23;;;20.20;99.90;;;;;;5072170;28;20024;-70
2021/09/30 03:51:17;;;;;;;9.02;8.40;;;20.00;99.90;;;;;;5070936;28;20127;-70
2021/09/30 03:53:20;;;;;;;7.45;7.05;;;19.90;99.90;;;;;;5067751;28;20144;-70
2021/09/30 04:01:20;;;;;;;8.25;6.93;;;21.50;99.90;;;;;;5076096;28;20089;-69
2021/09/30 04:03:48;;;;;;;7.28;6.72;;;21.80;99.90;;;;;;5075543;28;20021;-69
2021/09/30 04:06:15;;;;;;;6.65;6.30;;;22.00;99.90;;;;;;5075496;28;20029;-69
2021/09/30 04:08:43;;;;;;;6.57;6.13;;;22.00;99.90;;;;;;5074364;28;20031;-70
2021/09/30 04:11:10;;;;;;;6.07;5.75;;;22.00;99.90;;;;;;5075518;28;20020;-70
2021/09/30 04:13:37;;;;;;;5.70;5.30;;;22.30;99.90;;;;;;5075199;28;20123;-69
2021/09/30 04:16:05;;;;;;;5.85;5.45;;;22.10;99.90;;;;;;5075182;28;20476;-69
2021/09/30 04:18:33;;;;;;;5.28;4.90;;;22.30;99.90;;;;;;5075391;28;20021;-69
2021/09/30 04:21:00;;;;;;;5.63;5.13;;;22.30;99.90;;;;;;5075289;28;20150;-69
2021/09/30 04:23:27;;;;;;;5.60;5.20;;;22.50;99.90;;;;;;5075270;28;20028;-70
2021/09/30 04:25:55;;;;;;;5.78;5.40;;;22.60;99.90;;;;;;5075251;28;20477;-68
2021/09/30 04:28:22;;;;;;;5.88;5.40;;;22.50;99.90;;;;;;5074121;28;20032;-70
2021/09/30 04:30:49;;;;;;;5.65;4.95;;;22.60;99.90;;;;;;5075009;28;20024;-67
2021/09/30 04:33:17;;;;;;;5.65;5.22;;;22.40;99.90;;;;;;5075150;28;20020;-70
2021/09/30 04:35:44;;;;;;;5.55;5.15;;;22.70;99.90;;;;;;5073748;28;20119;-70
2021/09/30 04:38:11;;;;;;;5.78;5.03;;;22.90;99.90;;;;;;5073797;28;20020;-69
2021/09/30 04:40:39;;;;;;;5.60;5.20;;;23.00;99.90;;;;;;5073648;28;20079;-71
2021/09/30 04:43:06;;;;;;;5.55;5.07;;;23.20;99.90;;;;;;5074989;28;20056;-70
2021/09/30 04:45:33;;;;;;;5.80;5.30;;;23.30;99.90;;;;;;5074801;28;20029;-70
2021/09/30 04:48:01;;;;;;;6.18;4.85;;;23.40;99.90;;;;;;5073737;28;20500;-69
2021/09/30 04:50:28;;;;;;;4.82;4.50;;;23.60;99.90;;;;;;5073564;28;20036;-69
2021/09/30 04:53:01;;;;;;;5.30;4.80;;;23.60;99.90;;;;;;5074833;28;20025;-70
2021/09/30 04:55:29;;;;;;;4.25;3.95;;;23.30;99.90;;;;;;5074745;28;20028;-70
2021/09/30 04:57:56;;;;;;;3.88;3.53;;;23.50;99.90;;;;;;5074738;28;20017;-70
2021/09/30 05:00:25;;;;;;;4.38;3.97;;;23.40;99.90;;;;;;5074688;28;20100;-70
2021/09/30 05:02:52;;;;;;;5.38;3.60;;;23.30;99.90;;;;;;5074011;28;20027;-70
2021/09/30 05:05:20;;;;;;;3.65;2.97;;;23.40;99.90;;;;;;5074044;28;20051;-69
2021/09/30 05:07:47;;;;;;;3.10;2.80;;;23.10;99.90;;;;;;5074529;28;20020;-68
2021/09/30 05:10:19;;;;;;;3.33;3.03;;;23.10;99.90;;;;;;5074678;28;20469;-70
2021/09/30 05:12:48;;;;;;;3.72;3.42;;;23.20;99.90;;;;;;5074539;28;20039;-70
2021/09/30 05:15:15;;;;;;;2.90;2.70;;;23.10;99.90;;;;;;5074151;28;20052;-72
2021/09/30 05:17:43;;;;;;;2.88;2.67;;;23.10;99.90;;;;;;5074379;28;20025;-69
2021/09/30 05:20:11;;;;;;;2.90;2.55;;;23.00;99.90;;;;;;5074157;28;20017;-69
2021/09/30 05:22:39;;;;;;;3.45;2.60;;;22.90;99.90;;;;;;5074214;28;20058;-69
2021/09/30 05:25:06;;;;;;;2.45;2.35;;;22.80;99.90;;;;;;5074330;28;20465;-69
2021/09/30 05:27:36;;;;;;;;;;;22.70;99.90;;;;;;5074431;28;20052;-69
2021/09/30 05:30:04;;;;;;;2.70;2.60;;;22.60;99.90;;;;;;5072739;28;19944;-69
2021/09/30 05:32:31;;;;;;;4.07;2.83;;;22.50;99.90;;;;;;5073938;28;20025;-68
2021/09/30 05:34:59;;;;;;;2.92;2.60;;;22.30;99.90;;;;;;5073906;28;20021;-68
2021/09/30 05:37:28;;;;;;;2.20;2.00;;;22.10;99.90;;;;;;5072425;28;20021;-68
2021/09/30 05:39:56;;;;;;;3.23;2.93;;;21.90;99.90;;;;;;5074016;28;20528;-68
2021/09/30 05:42:24;;;;;;;2.90;2.70;;;21.90;99.90;;;;;;5073636;28;20020;-69
2021/09/30 05:44:52;;;;;;;2.60;2.50;;;21.70;99.90;;;;;;5073597;28;20025;-68
2021/09/30 05:47:20;;;;;;;3.10;2.63;;;21.50;99.90;;;;;;5073610;28;20503;-68
2021/09/30 05:49:47;;;;;;;2.65;2.42;;;21.20;99.90;;;;;;5073338;28;20540;-70
2021/09/30 05:52:14;;;;;;;2.70;2.50;;;21.10;99.90;;;;;;5073695;28;20021;-68
2021/09/30 05:54:41;;;;;;;3.67;3.22;;;20.80;99.90;;;;;;5073392;28;20029;-68
2021/09/30 05:57:09;;;;;;;2.90;2.75;;;20.60;99.90;;;;;;5073559;28;20031;-69
2021/09/30 05:59:37;;;;;;;3.75;3.15;;;20.50;99.90;;;;;;5071984;28;20387;-68
2021/09/30 06:10:20;;;;;;;4.30;4.05;;;20.30;99.90;;;;;;5073512;28;20043;-70
2021/09/30 06:12:55;;;;;;;4.28;3.97;;;20.40;99.90;;;;;;5073107;28;20528;-69
2021/09/30 06:15:30;;;;;;;5.53;4.03;;;20.30;99.90;;;;;;5071493;28;20120;-69
2021/09/30 06:17:59;;;;;;;4.38;3.97;;;20.30;99.90;;;;;;5073038;28;20032;-72
2021/09/30 06:20:27;;;;;;;4.07;3.80;;;20.30;99.90;;;;;;5073041;28;20028;-70
2021/09/30 06:22:54;;;;;;;4.68;4.32;;;20.30;99.90;;;;;;5072809;28;20073;-70
2021/09/30 06:25:22;;;;;;;4.60;4.30;;;20.20;99.90;;;;;;5071755;28;20028;-69
2021/09/30 06:27:49;;;;;;;4.57;4.22;;;20.10;99.90;;;;;;5072858;28;20051;-71
2021/09/30 06:30:17;;;;;;;5.00;4.50;;;20.00;99.90;;;;;;5071536;28;20492;-72
2021/09/30 06:32:45;;;;;;;6.88;5.50;;;19.90;99.90;;;;;;5072846;28;20081;-70
2021/09/30 06:35:12;;;;;;;6.00;5.50;;;19.90;99.90;;;;;;5071186;28;20029;-71
2021/09/30 06:37:39;;;;;;;6.05;5.60;;;19.90;99.90;;;;;;5072608;28;20032;-71
2021/09/30 06:40:08;;;;;;;6.28;5.78;;;19.90;99.90;;;;;;5071231;28;20017;-70
2021/09/30 06:42:36;;;;;;;7.32;6.20;;;19.80;99.90;;;;;;5071534;28;20342;-70
2021/09/30 06:45:04;;;;;;;9.77;7.03;;;19.90;99.90;;;;;;5071205;28;20485;-72
2021/09/30 06:47:36;;;;;;;7.88;7.10;;;20.00;99.90;;;;;;5072636;28;20025;-70
2021/09/30 06:50:09;;;;;;;8.07;7.25;;;19.90;99.90;;;;;;5072686;28;20452;-72
2021/09/30 06:52:37;;;;;;;8.32;6.88;;;19.90;99.90;;;;;;5071186;28;20036;-70
2021/09/30 06:55:05;;;;;;;6.40;5.80;;;19.80;99.90;;;;;;5071115;28;20086;-70
2021/09/30 06:57:32;;;;;;;9.30;6.00;;;19.70;99.90;;;;;;5072396;28;20086;-70
2021/09/30 07:00:03;;;;;;;6.72;6.13;;;19.60;99.90;;;;;;5072393;28;20028;-70
2021/09/30 07:02:31;;;;;;;7.22;6.07;;;19.60;99.90;;;;;;5071047;28;20440;-69
2021/09/30 07:04:58;;;;;;;7.20;6.50;;;19.50;99.90;;;;;;5072473;28;20040;-70
2021/09/30 07:07:25;;;;;;;6.80;6.25;;;19.40;99.90;;;;;;5072439;28;20024;-70
2021/09/30 07:09:53;;;;;;;6.93;6.43;;;19.60;99.90;;;;;;5070967;28;20120;-70
2021/09/30 07:12:20;;;;;;;7.00;5.57;;;19.30;99.90;;;;;;5071211;28;20031;-69
2021/09/30 07:14:47;;;;;;;6.10;5.60;;;19.30;99.90;;;;;;5072046;28;20085;-70
2021/09/30 07:17:15;;;;;;;10.25;6.05;;;19.30;99.90;;;;;;5070920;28;20025;-70
2021/09/30 07:19:42;;;;;;;7.00;6.40;;;19.20;99.90;;;;;;5070981;28;20025;-70
2021/09/30 07:22:10;;;;;;;6.93;5.78;;;19.20;99.90;;;;;;5072201;28;20074;-69
2021/09/30 07:24:37;;;;;;;7.28;6.13;;;19.10;99.90;;;;;;5071404;28;20469;-67
2021/09/30 07:27:07;;;;;;;8.25;6.05;;;19.10;99.90;;;;;;5074069;28;20052;-68
2021/09/30 07:29:34;;;;;;;7.82;5.93;;;19.10;99.90;;;;;;5076279;28;20039;-69
2021/09/30 07:32:03;;;;;;;6.15;5.72;;;19.10;99.90;;;;;;5076322;28;20373;-68
2021/09/30 07:34:33;;;;;;;7.47;5.75;;;19.10;99.90;;;;;;5076128;28;20031;-68
2021/09/30 07:37:00;;;;;;;7.68;5.63;;;19.10;99.90;;;;;;5074766;28;20052;-67
2021/09/30 07:39:29;;;;;;;7.60;5.10;;;19.10;99.90;;;;;;5074693;28;20055;-68
2021/09/30 07:41:57;;;;;;;8.48;5.05;;;19.00;99.90;;;;;;5075968;28;20027;-69
2021/09/30 07:44:25;;;;;;;5.93;5.50;;;19.00;99.90;;;;;;5076002;28;20098;-68
2021/09/30 07:46:54;;;;;;;7.43;5.35;;;19.00;99.90;;;;;;5076033;28;20074;-68
2021/09/30 07:49:22;;;;;;;6.25;5.30;;;19.00;99.90;;;;;;5075884;28;20384;-70
2021/09/30 07:51:49;;;;;;;6.05;5.50;;;18.90;99.90;;;;;;5074725;28;20454;-70
2021/09/30 07:54:17;;;;;;;8.73;5.78;;;18.90;99.90;;;;;;5074432;28;20020;-70
2021/09/30 07:56:44;;;;;;;7.25;6.60;;;18.90;99.90;;;;;;5074566;28;20031;-71
2021/09/30 07:59:12;;;;;;;9.25;6.55;;;18.80;99.90;;;;;;5075709;28;20027;-72
2021/09/30 08:01:39;;;;;;;9.52;7.35;;;18.80;99.90;;;;;;5075601;28;20104;-71
2021/09/30 08:04:07;;;;;;;9.82;8.82;;;18.70;99.90;;;;;;5074232;28;20116;-71
2021/09/30 08:06:39;;;;;;;12.15;8.30;;;18.70;99.90;;;;;;5074306;28;20029;-72
2021/09/30 08:09:07;;;;;;;12.20;7.20;;;18.60;99.90;;;;;;5075594;28;20025;-71
2021/09/30 08:11:35;;;;;;;9.25;7.57;;;18.50;99.90;;;;;;5074197;28;20067;-71
2021/09/30 08:14:02;;;;;;;10.45;8.00;;;18.50;99.90;;;;;;5075433;28;20092;-73
2021/09/30 08:16:30;;;;;;;8.13;7.38;;;18.50;99.90;;;;;;5075286;28;20163;-71
2021/09/30 08:18:58;;;;;;;11.43;8.05;;;18.40;99.90;;;;;;5075274;28;20048;-72
2021/09/30 08:21:27;;;;;;;12.20;7.50;;;18.40;99.90;;;;;;5075150;28;20098;-71
2021/09/30 08:23:55;;;;;;;8.57;7.40;;;18.40;99.90;;;;;;5075303;28;20028;-71
2021/09/30 08:26:23;;;;;;;10.20;7.00;;;18.30;99.90;;;;;;5075240;28;20047;-72
2021/09/30 08:28:53;;;;;;;11.10;6.88;;;18.30;99.90;;;;;;5073955;28;20111;-71
2021/09/30 08:31:22;;;;;;;8.00;6.63;;;18.30;99.90;;;;;;5073872;28;20054;-70
2021/09/30 08:33:51;;;;;;;8.23;7.07;;;18.30;99.90;;;;;;5073628;28;20029;-69
2021/09/30 08:36:19;;;;;;;7.53;6.55;;;18.30;99.90;;;;;;5074954;28;20023;-70
2021/09/30 08:38:46;;;;;;;8.40;6.55;;;18.20;99.90;;;;;;5074874;28;20017;-71
2021/09/30 08:41:14;;;;;;;11.15;9.38;;;18.20;99.90;;;;;;5075084;28;20024;-70
2021/09/30 08:43:43;;;;;;;8.32;7.53;;;18.20;99.90;;;;;;5074838;28;20512;-71
2021/09/30 08:46:11;;;;;;;8.00;6.75;;;18.10;99.90;;;;;;5074921;28;20024;-70
2021/09/30 08:48:39;;;;;;;12.05;9.02;;;18.10;99.90;;;;;;5073601;28;20028;-72
2021/09/30 08:51:09;;;;;;;8.10;7.10;;;18.20;99.90;;;;;;5074886;28;20028;-69
2021/09/30 08:53:36;;;;;;;10.70;7.32;;;18.00;99.90;;;;;;5074586;28;20027;-69
2021/09/30 08:56:08;;;;;;;11.32;8.00;;;17.90;99.90;;;;;;5074664;28;20033;-70
2021/09/30 08:58:37;;;;;;;11.15;9.07;;;17.90;99.90;;;;;;5073311;28;20021;-70
2021/09/30 09:01:07;;;;;;;12.05;10.52;;;17.90;99.90;;;;;;5074559;28;20465;-69
2021/09/30 09:03:46;;;;;;;7.35;6.63;;;17.80;99.90;;;;;;5074450;28;20021;-70
2021/09/30 09:06:34;;;;;;;7.22;6.65;;;17.90;99.90;;;;;;5073333;28;20062;-70
2021/09/30 09:09:23;;;;;;;7.22;6.65;;;18.00;99.90;;;;;;5074494;28;20021;-71
2021/09/30 09:11:53;;;;;;;14.45;12.95;;;18.00;99.90;;;;;;5074611;28;20300;-72
2021/09/30 09:14:31;;;;;;;9.73;8.82;;;18.00;99.90;;;;;;5074277;28;20051;-72
2021/09/30 09:17:11;;;;;;;6.93;6.43;;;18.00;99.90;;;;;;5072990;28;20111;-72
2021/09/30 09:19:47;;;;;;;7.97;7.27;;;18.00;99.90;;;;;;5074363;28;20029;-72
2021/09/30 09:22:19;;;;;;;7.65;7.00;;;18.00;99.90;;;;;;5074628;28;20053;-71
2021/09/30 09:25:04;;;;;;;7.80;7.10;;;18.10;99.90;;;;;;5073013;28;20481;-69
2021/09/30 09:27:51;;;;;;;17.92;16.45;;;18.10;99.90;;;;;;5074187;28;20556;-70
2021/09/30 09:30:43;;;;;;;16.38;14.07;;;18.10;99.90;;;;;;5074118;28;20025;-71
2021/09/30 09:33:29;;;;;;;5.30;4.90;;;18.10;99.90;;;;;;5073975;28;20028;-69
2021/09/30 09:36:09;;;;;;;5.85;5.25;;;18.20;99.90;;;;;;5072488;28;20024;-70
2021/09/30 09:38:44;;;;;;;;;;;18.30;99.90;;;;;;5074370;28;20536;-71
2021/09/30 09:41:23;;;;;;;22.98;20.55;;;18.30;99.90;;;;;;5073810;28;19927;-70
2021/09/30 09:43:53;;;;;;;6.70;6.10;;;18.10;99.90;;;;;;5072607;28;20492;-70
2021/09/30 09:46:24;;;;;;;10.63;9.60;;;18.20;99.90;;;;;;5072379;28;20031;-69
2021/09/30 09:48:57;;;;;;;14.63;12.77;;;18.10;99.90;;;;;;5072060;28;20040;-70
2021/09/30 09:51:26;;;;;;;13.75;11.65;;;18.00;99.90;;;;;;5073548;28;20044;-70
2021/09/30 09:53:57;;;;;;;12.70;11.50;;;18.00;99.90;;;;;;5072320;28;20111;-70
2021/09/30 09:56:25;;;;;;;11.77;10.57;;;18.00;99.90;;;;;;5073431;28;20021;-71
2021/09/30 09:58:57;;;;;;;5.25;4.78;;;17.90;99.90;;;;;;5072174;28;20164;-70
2021/09/30 10:01:47;;;;;;;7.68;6.88;;;17.80;99.90;;;;;;5073516;28;20539;-70
2021/09/30 10:04:15;;;;;;;5.70;5.20;;;17.90;99.90;;;;;;5073357;28;20021;-71
2021/09/30 10:06:42;;;;;;;7.75;6.88;;;18.00;99.90;;;;;;5073445;28;20032;-72
2021/09/30 10:09:14;;;;;;;8.18;7.35;;;18.00;99.90;;;;;;5073325;28;20033;-70
2021/09/30 10:11:41;;;;;;;7.03;6.35;;;17.90;99.90;;;;;;5071877;28;20073;-70
2021/09/30 10:14:09;;;;;;;5.80;5.30;;;17.90;99.90;;;;;;5073136;28;20017;-70
2021/09/30 10:16:38;;;;;;;9.30;7.15;;;18.00;99.90;;;;;;5073060;28;20040;-69
2021/09/30 10:19:09;;;;;;;7.07;6.25;;;18.00;99.90;;;;;;5073342;28;20012;-70
2021/09/30 10:21:39;;;;;;;6.15;5.60;;;18.00;99.90;;;;;;5072976;28;20048;-72
2021/09/30 10:24:15;;;;;;;7.45;6.85;;;18.00;99.90;;;;;;5072975;28;20017;-70
2021/09/30 10:26:46;;;;;;;5.47;5.07;;;18.00;99.90;;;;;;5073049;28;20023;-70
2021/09/30 10:29:34;;;;;;;6.00;5.53;;;18.00;99.90;;;;;;5073331;28;20408;-72
2021/09/30 10:32:02;;;;;;;6.10;5.60;;;18.00;99.90;;;;;;5071603;28;20489;-69
2021/09/30 10:34:33;;;;;;;5.60;5.20;;;17.90;99.90;;;;;;5072731;28;20031;-70
2021/09/30 10:37:20;;;;;;;6.13;5.50;;;17.90;99.90;;;;;;5071561;28;20025;-72
2021/09/30 10:40:19;;;;;;;6.53;5.10;;;17.90;99.90;;;;;;5071452;28;20055;-71
2021/09/30 10:42:53;;;;;;;5.90;5.53;;;17.80;99.90;;;;;;5072879;28;20020;-72
2021/09/30 10:45:23;;;;;;;5.90;5.40;;;17.80;99.90;;;;;;5072779;28;20025;-71
2021/09/30 10:47:51;;;;;;;6.38;6.07;;;17.80;99.90;;;;;;5072818;28;20020;-70
2021/09/30 10:50:19;;;;;;;6.80;6.07;;;17.90;99.90;;;;;;5072761;28;20021;-70
2021/09/30 10:52:55;;;;;;;6.63;6.10;;;17.80;99.90;;;;;;5072572;28;20028;-71
2021/09/30 10:55:23;;;;;;;7.05;6.40;;;17.70;99.90;;;;;;5072434;28;20497;-71
2021/09/30 10:57:53;;;;;;;6.50;5.82;;;17.70;99.90;;;;;;5072519;28;20025;-71
2021/09/30 11:00:20;;;;;;;7.90;7.30;;;17.70;99.90;;;;;;5071157;28;20097;-71
2021/09/30 11:03:05;;;;;;;7.03;6.53;;;17.80;99.90;;;;;;5070381;28;20106;-72
2021/09/30 11:06:06;;;;;;;7.63;6.82;;;17.90;99.90;;;;;;5072513;28;20024;-71
2021/09/30 11:08:34;;;;;;;8.27;7.50;;;17.90;99.90;;;;;;5072351;28;20020;-69
2021/09/30 11:11:05;;;;;;;8.05;7.45;;;18.10;99.90;;;;;;5071146;28;20027;-71
2021/09/30 11:13:43;;;;;;;6.72;6.22;;;18.00;99.90;;;;;;5072462;28;20522;-70
2021/09/30 11:16:20;;;;;;;5.50;5.10;;;18.00;99.90;;;;;;5070791;28;20049;-70
2021/09/30 11:18:52;;;;;;;5.47;5.07;;;18.10;99.90;;;;;;5072476;28;20031;-71
2021/09/30 11:21:34;;;;;;;5.53;5.20;;;18.00;99.90;;;;;;5072516;28;20119;-70
2021/09/30 11:24:08;;;;;;;5.43;5.13;;;18.10;99.90;;;;;;5072590;28;20013;-71
2021/09/30 11:26:56;;;;;;;5.70;5.20;;;18.10;99.90;;;;;;5071112;28;20028;-70
2021/09/30 11:29:26;;;;;;;6.20;5.80;;;18.10;99.90;;;;;;5061588;28;20025;-70
2021/09/30 11:32:00;;;;;;;6.07;5.50;;;18.10;99.90;;;;;;5072364;28;20040;-71
2021/09/30 11:34:29;;;;;;;5.70;5.30;;;18.10;99.90;;;;;;5070959;28;20037;-71
2021/09/30 11:37:17;;;;;;;5.50;5.20;;;18.00;99.90;;;;;;5071071;28;20025;-70
2021/09/30 11:39:49;;;;;;;5.10;4.80;;;18.10;99.90;;;;;;5072741;28;20020;-71
2021/09/30 11:42:21;;;;;;;5.30;4.90;;;18.00;99.90;;;;;;5072376;28;20035;-71
2021/09/30 11:44:58;;;;;;;5.70;5.30;;;18.00;99.90;;;;;;5072487;28;20025;-71
2021/09/30 11:47:27;;;;;;;5.60;5.20;;;17.90;99.90;;;;;;5072501;28;20073;-72
2021/09/30 11:49:55;;;;;;;5.80;5.43;;;17.90;99.90;;;;;;5072265;28;20078;-70
2021/09/30 11:52:22;;;;;;;6.45;6.13;;;17.80;99.90;;;;;;5072247;28;20025;-71
2021/09/30 11:54:50;;;;;;;6.32;5.93;;;17.70;99.90;;;;;;5072108;28;20120;-71
2021/09/30 11:57:24;;;;;;;6.60;6.10;;;17.70;99.90;;;;;;5072369;28;20029;-71
2021/09/30 11:59:52;;;;;;;7.07;6.68;;;17.70;99.90;;;;;;5072209;28;20070;-71
2021/09/30 12:02:20;;;;;;;5.90;5.50;;;17.70;99.90;;;;;;5070753;28;20520;-72
2021/09/30 12:04:49;;;;;;;5.95;5.55;;;17.70;99.90;;;;;;5070818;28;20059;-71
2021/09/30 12:07:20;;;;;;;6.07;5.63;;;17.70;99.90;;;;;;5072143;28;20108;-70
2021/09/30 12:09:56;;;;;;;6.97;5.57;;;17.70;99.90;;;;;;5070717;28;20412;-70
2021/09/30 12:12:32;;;;;;;6.75;6.40;;;17.70;99.90;;;;;;5072464;28;20481;-70
2021/09/30 12:14:59;;;;;;;6.30;5.90;;;17.70;99.90;;;;;;5075620;28;20150;-71
2021/09/30 12:17:33;;;;;;;6.75;6.30;;;17.70;99.90;;;;;;5075594;28;20027;-70
2021/09/30 12:20:01;;;;;;;6.80;6.40;;;17.70;99.90;;;;;;5074253;28;20070;-71
2021/09/30 12:22:39;;;;;;;7.13;6.68;;;17.60;99.90;;;;;;5075578;28;20066;-72
2021/09/30 12:25:14;;;;;;;8.15;7.20;;;17.60;99.90;;;;;;5074214;28;20417;-71
2021/09/30 12:27:46;;;;;;;7.55;6.90;;;17.50;99.90;;;;;;5075678;28;20020;-70
2021/09/30 12:30:18;;;;;;;8.15;7.40;;;17.50;99.90;;;;;;5075469;28;20016;-70
2021/09/30 12:32:50;;;;;;;8.63;7.78;;;17.40;99.90;;;;;;5073986;28;20086;-71
2021/09/30 12:35:26;;;;;;;9.10;8.18;;;17.40;99.90;;;;;;5073991;28;20037;-70
2021/09/30 12:38:02;;;;;;;9.50;8.80;;;17.30;99.90;;;;;;5073956;28;20108;-70
2021/09/30 12:40:36;;;;;;;9.88;8.88;;;17.30;99.90;;;;;;5075241;28;20020;-70
2021/09/30 12:43:09;;;;;;;9.63;8.55;;;17.30;99.90;;;;;;5075099;28;20040;-70
2021/09/30 12:45:39;;;;;;;9.82;8.80;;;17.30;99.90;;;;;;5073761;28;20067;-70
2021/09/30 12:48:15;;;;;;;11.63;9.40;;;17.30;99.90;;;;;;5075260;28;20021;-70
2021/09/30 12:50:51;;;;;;;9.65;8.80;;;17.20;99.90;;;;;;5075252;28;20040;-70
2021/09/30 12:53:21;;;;;;;10.38;9.38;;;17.30;99.90;;;;;;5074988;28;20037;-71
2021/09/30 12:55:50;;;;;;;9.55;8.75;;;17.30;99.90;;;;;;5074905;28;20484;-69
2021/09/30 12:58:31;;;;;;;12.23;8.63;;;17.30;99.90;;;;;;5073590;28;20542;-70
2021/09/30 13:01:00;;;;;;;9.13;8.23;;;17.30;99.90;;;;;;5074844;28;20070;-70
2021/09/30 13:03:28;;;;;;;9.23;8.50;;;17.20;99.90;;;;;;5073884;28;20024;-72
2021/09/30 13:05:57;;;;;;;9.20;8.40;;;17.20;99.90;;;;;;5074796;28;20370;-69
2021/09/30 13:08:39;;;;;;;8.30;7.70;;;17.30;99.90;;;;;;5073295;28;20020;-69
2021/09/30 13:11:23;;;;;;;8.30;7.40;;;17.30;99.90;;;;;;5074746;28;20070;-70
2021/09/30 13:14:23;;;;;;;7.63;7.03;;;17.30;99.90;;;;;;5074646;28;20073;-70
2021/09/30 13:16:55;;;;;;;8.32;7.70;;;17.40;99.90;;;;;;5074462;28;20060;-70
2021/09/30 13:19:49;;;;;;;8.20;7.45;;;17.50;99.90;;;;;;5074584;28;20110;-71
2021/09/30 13:22:21;;;;;;;7.72;7.32;;;17.60;99.90;;;;;;5073407;28;20051;-70
2021/09/30 13:24:51;;;;;;;8.30;7.70;;;17.70;99.90;;;;;;5072020;28;20048;-69
2021/09/30 13:27:27;;;;;;;7.55;7.03;;;17.70;99.90;;;;;;5074355;28;20021;-69
2021/09/30 13:29:55;;;;;;;7.05;6.45;;;17.80;99.90;;;;;;5074257;28;20052;-69
2021/09/30 13:32:25;;;;;;;8.02;7.50;;;17.90;99.90;;;;;;5074285;28;20029;-71
2021/09/30 13:34:54;;;;;;;8.00;7.47;;;17.80;99.90;;;;;;5072722;28;20115;-71
2021/09/30 13:37:22;;;;;;;7.25;6.72;;;17.90;99.90;;;;;;5074498;28;20102;-70
2021/09/30 13:39:54;;;;;;;6.80;6.40;;;17.90;99.90;;;;;;5073930;28;20067;-70
2021/09/30 13:42:22;;;;;;;6.25;5.95;;;17.90;99.90;;;;;;5073948;28;20013;-70
2021/09/30 13:44:50;;;;;;;6.35;5.90;;;17.90;99.90;;;;;;5073954;28;20081;-71
2021/09/30 13:47:17;;;;;;;6.82;6.43;;;17.90;99.90;;;;;;5073941;28;20052;-71
2021/09/30 13:49:44;;;;;;;7.00;6.50;;;17.90;99.90;;;;;;5074180;28;20381;-70
2021/09/30 13:52:13;;;;;;;6.43;6.03;;;17.90;99.90;;;;;;5073691;28;20534;-70
2021/09/30 13:54:40;;;;;;;7.30;6.70;;;17.80;99.90;;;;;;5072263;28;20060;-70
2021/09/30 13:57:10;;;;;;;7.45;6.95;;;17.70;99.90;;;;;;5073725;28;20171;-71
2021/09/30 13:59:41;;;;;;;6.97;6.45;;;17.70;99.90;;;;;;5073655;28;20385;-70
2021/09/30 14:02:08;;;;;;;7.38;6.80;;;17.60;99.90;;;;;;5073586;28;20046;-70
2021/09/30 14:04:37;;;;;;;7.10;6.40;;;17.50;99.90;;;;;;5073378;28;20358;-70
2021/09/30 14:07:09;;;;;;;8.38;7.15;;;17.40;99.90;;;;;;5073503;28;20025;-71
2021/09/30 14:09:37;;;;;;;8.35;7.50;;;17.30;99.90;;;;;;5073481;28;20028;-71
2021/09/30 14:12:06;;;;;;;7.82;7.18;;;17.20;99.90;;;;;;5071915;28;20030;-68
2021/09/30 14:14:33;;;;;;;7.60;7.00;;;17.10;99.90;;;;;;5073162;28;20108;-70
2021/09/30 14:17:01;;;;;;;10.25;7.63;;;17.00;99.90;;;;;;5073034;28;20047;-69
2021/09/30 14:19:29;;;;;;;9.48;8.13;;;17.00;99.90;;;;;;5073171;28;20017;-69
2021/09/30 14:21:57;;;;;;;8.88;7.97;;;17.00;99.90;;;;;;5071859;28;20397;-68
2021/09/30 14:24:25;;;;;;;11.60;8.70;;;17.00;99.90;;;;;;5073145;28;20428;-69
2021/09/30 14:26:52;;;;;;;9.77;8.90;;;17.00;99.90;;;;;;5073172;28;20481;-69
2021/09/30 14:29:19;;;;;;;9.20;8.40;;;16.90;99.90;;;;;;5073138;28;20097;-69
2021/09/30 14:31:47;;;;;;;9.55;8.40;;;16.90;99.90;;;;;;5073046;28;20024;-69
2021/09/30 14:34:14;;;;;;;9.25;8.35;;;16.80;99.90;;;;;;5072950;28;20024;-69
2021/09/30 14:36:42;;;;;;;12.00;8.90;;;16.70;99.90;;;;;;5071461;28;20021;-70
2021/09/30 14:39:09;;;;;;;10.20;9.20;;;16.60;99.90;;;;;;5073040;28;20031;-69
2021/09/30 14:41:36;;;;;;;11.63;9.40;;;16.50;99.90;;;;;;5072995;28;20020;-70
2021/09/30 14:44:05;;;;;;;13.85;10.13;;;16.50;99.90;;;;;;5072979;28;20385;-70
2021/09/30 14:46:32;;;;;;;11.60;9.90;;;16.50;99.90;;;;;;5072902;28;20020;-69
2021/09/30 14:49:00;;;;;;;10.80;9.55;;;16.50;99.90;;;;;;5071590;28;20107;-69
2021/09/30 14:51:27;;;;;;;10.05;8.55;;;16.50;99.90;;;;;;5072861;28;20016;-70
2021/09/30 14:53:54;;;;;;;10.93;8.68;;;16.40;99.90;;;;;;5071557;28;20119;-70
2021/09/30 14:56:22;;;;;;;12.40;8.52;;;16.40;99.90;;;;;;5072624;28;20362;-69
2021/09/30 14:58:49;;;;;;;10.73;9.27;;;16.40;99.90;;;;;;5072696;28;20459;-70
2021/09/30 15:01:19;;;;;;;11.75;8.85;;;16.30;99.90;;;;;;5072652;28;20119;-69
2021/09/30 15:03:47;;;;;;;15.95;9.30;;;16.30;99.90;;;;;;5073314;28;20469;-69
2021/09/30 15:06:14;;;;;;;12.77;9.35;;;16.30;99.90;;;;;;5072672;28;20029;-70
2021/09/30 15:08:41;;;;;;;14.85;9.65;;;16.30;99.90;;;;;;5072862;28;20108;-69
2021/09/30 15:11:09;;;;;;;12.98;9.00;;;16.30;99.90;;;;;;5072827;28;20073;-70
2021/09/30 15:13:36;;;;;;;17.23;9.45;;;16.40;99.90;;;;;;5072688;28;20033;-69
2021/09/30 15:16:07;;;;;;;15.50;9.88;;;16.40;99.90;;;;;;5072463;28;20029;-69
2021/09/30 15:21:26;;;;;;;14.93;10.52;;;16.50;99.90;;;;;;5072631;28;20485;-69
2021/09/30 15:24:00;;;;;;;14.98;9.05;;;16.50;99.90;;;;;;5071208;28;20024;-70
2021/09/30 15:26:30;;;;;;;12.63;8.88;;;16.50;99.90;;;;;;5071244;28;20033;-69
2021/09/30 15:28:57;;;;;;;15.27;9.15;;;16.50;99.90;;;;;;5072534;28;20031;-69
2021/09/30 15:31:26;;;;;;;16.40;9.55;;;16.50;99.90;;;;;;5072405;28;20025;-70
2021/09/30 15:33:55;;;;;;;16.33;9.05;;;16.60;99.90;;;;;;5072411;28;20453;-69
2021/09/30 15:36:23;;;;;;;18.38;9.88;;;16.60;99.90;;;;;;5072341;28;20025;-69
2021/09/30 15:38:54;;;;;;;20.92;9.73;;;16.70;99.90;;;;;;5072494;28;20070;-70
2021/09/30 15:41:22;;;;;;;20.13;10.30;;;16.70;99.90;;;;;;5072530;28;20075;-71
2021/09/30 15:43:51;;;;;;;15.68;10.82;;;16.70;99.90;;;;;;5072627;28;20025;-69
2021/09/30 15:46:18;;;;;;;23.50;11.55;;;16.70;99.90;;;;;;5072398;28;20032;-70
2021/09/30 15:48:46;;;;;;;18.52;11.27;;;16.70;99.90;;;;;;5073545;28;20151;-70
2021/09/30 15:51:14;;;;;;;23.05;11.98;;;16.70;99.90;;;;;;5076194;28;20029;-70
2021/09/30 15:53:43;;;;;;;16.90;10.32;;;16.70;99.90;;;;;;5076064;28;20025;-70